DNAA/ABV METAR and TAF weather

Enter ICAO airport designator
Station Type Date Time Source
DNAA METAR 2019/10/21 03:00 UTC NOAA

DNAA 210300Z 26003KT 9999 FEW007 22/20 Q1014 NOSIG


Station Type Date Time Source
DNAA Decoded METAR 2019/10/21 03:00 UTC NOAA

Station name not available
Oct 20, 2019 - 11:00 PM EDT / 2019.10.21 0300 UTC
Wind: from the W (260 degrees) at 3 MPH (3 KT):0
Visibility: greater than 7 mile(s):0
Sky conditions: mostly clear
Temperature: 71 F (22 C)
Dew Point: 68 F (20 C)
Relative Humidity: 88%
Pressure (altimeter): 29.94 in. Hg (1014 hPa)
ob: DNAA 210300Z 26003KT 9999 FEW007 22/20 Q1014 NOSIG
cycle: 3

Station Type Date Time Source
DNAA TAF 2019/10/20 18:21 UTC NOAA

TAF DNAA 201700Z 2018/2124 24008KT 9999 SCT011 FEW020CB
TEMPO 2018/2022 TS PROB30
TEMPO 2019/2022 06015G30KT 5000 -TSRA BKN008 FEW018CB
BECMG 2022/2024 VRB02KT FEW009

Example: see airport list